Evansville, Minnesota
Current Conditions -  °F | °C
As of 5:53 AM on Wednesday 26 Nov 2014 (Local Time) from KAXN Reporting Station
Light Snow Light Snow  
Wind Chill:   Ceiling: 4600
Heat Index: 19°   Visibility: 3mi
Dew Point: 15°   Wind: 14mph
Humidity: 85%   Direction: 30°NNE
Pressure: 30.09"   Gusts: NA
Location:  46°N, 95.68°W
Report Text: KAXN 261153Z AUTO 03012KT 3SM -SN BR OVC046 M07/M09 A3009 RMK AO2 SLP216 P0000 60000 T10721094 11061 21072 53020
Loading
Personal Weather Stations






























Interactive Weather Map New forecast layout! Learn more

10-Day Weather Forecast

Advertisements
Track Severe Weather on mobile